WATT/KOE METAR and TAF weather

Enter ICAO airport designator
Station Type Date Time Source
WATT METAR 2021/04/05 23:00 UTC NOAA

WATT 052300Z 25002KT 9999 SCT016 27/22 Q1008 NOSIG


Station Type Date Time Source
WATT Decoded METAR 2021/04/05 23:00 UTC NOAA

Station name not available
Apr 05, 2021 - 07:00 PM EDT / 2021.04.05 2300 UTC
Wind: from the WSW (250 degrees) at 2 MPH (2 KT):0
Visibility: greater than 7 mile(s):0
Sky conditions: partly cloudy
Temperature: 80 F (27 C)
Dew Point: 71 F (22 C)
Relative Humidity: 74%
Pressure (altimeter): 29.77 in. Hg (1008 hPa)
ob: WATT 052300Z 25002KT 9999 SCT016 27/22 Q1008 NOSIG
cycle: 23

Station Type Date Time Source
WATT TAF 2021/04/14 17:00 UTC NOAA

TAF WATT 141700Z 1417/1518 24005KT 8000 SCT018
BECMG 1502/1504 11010KT

Example: see airport list